Rockaway, Oregon
Current Conditions -  °F | °C
As of 6:55 PM on Wednesday 22 Oct 2014 (Local Time) from KTMK Reporting Station
Moderate Rain Moderate Rain  
Wind Chill: 57°   Ceiling: 2300
Heat Index: 57°   Visibility: 7mi
Dew Point: 54°   Wind: 10mph
Humidity: 88%   Direction: 180°S
Pressure: 29.69"   Gusts: NA
Location:  45.6132°N, 123.654°W
Report Text: KTMK 230155Z AUTO 18009KT 7SM RA BKN023 OVC028 14/12 A2969 RMK AO2 P0001
Loading
Personal Weather Stations






























Interactive Weather Map New forecast layout! Learn more

10-Day Weather Forecast

Advertisements
Track Severe Weather on mobile